createdAt,value
2023-05-19T00:00:08.183Z,51.97
2023-05-19T00:05:08.800Z,52.01
2023-05-19T00:10:08.815Z,52.01
2023-05-19T00:15:08.814Z,52.05
2023-05-19T00:20:08.838Z,52.07
2023-05-19T00:25:08.859Z,52.09
2023-05-19T00:30:08.884Z,52.1
2023-05-19T00:35:08.897Z,52.1
2023-05-19T00:40:08.901Z,52.14
2023-05-19T00:45:08.895Z,52.15
2023-05-19T00:50:07.993Z,52.17
2023-05-19T00:55:08.011Z,52.16
2023-05-19T01:00:07.994Z,52.2
2023-05-19T01:05:08.013Z,52.2
2023-05-19T01:10:08.011Z,52.23
2023-05-19T01:15:07.995Z,52.26
2023-05-19T01:20:08.016Z,52.27
2023-05-19T01:25:08.033Z,52.29
2023-05-19T01:30:08.041Z,52.3
2023-05-19T01:35:08.035Z,52.31
2023-05-19T01:40:08.009Z,52.33
2023-05-19T01:45:07.979Z,52.34
2023-05-19T01:50:07.952Z,52.37
2023-05-19T01:55:07.973Z,52.39
2023-05-19T02:00:08.042Z,52.42
2023-05-19T02:05:08.065Z,52.41
2023-05-19T02:10:08.073Z,52.44
2023-05-19T02:15:18.106Z,52.45
2023-05-19T02:20:08.150Z,52.46
2023-05-19T02:25:08.593Z,52.48
2023-05-19T02:30:08.591Z,52.49
2023-05-19T02:35:08.626Z,52.52
2023-05-19T02:40:08.654Z,52.53
2023-05-19T02:45:08.653Z,52.53
2023-05-19T02:50:08.690Z,52.57
2023-05-19T02:55:08.852Z,52.57
2023-05-19T03:00:08.886Z,52.57
2023-05-19T03:05:08.869Z,52.6
2023-05-19T03:10:08.831Z,52.61
2023-05-19T03:15:08.806Z,52.61
2023-05-19T03:20:08.769Z,52.67
2023-05-19T03:25:08.748Z,52.65
2023-05-19T03:30:08.769Z,52.68
2023-05-19T03:35:08.756Z,52.68
2023-05-19T03:40:08.778Z,52.69
2023-05-19T03:45:08.781Z,52.72
2023-05-19T03:50:08.737Z,52.74
2023-05-19T03:55:08.721Z,52.74
2023-05-19T04:00:08.704Z,52.77
2023-05-19T04:05:02.885Z,52.81
2023-05-19T04:10:03.087Z,52.8
2023-05-19T04:15:02.160Z,52.82
2023-05-19T04:20:02.301Z,52.82
2023-05-19T04:25:02.408Z,52.88
2023-05-19T04:30:02.661Z,52.87
2023-05-19T04:35:02.762Z,52.89
2023-05-19T04:40:02.789Z,52.91
2023-05-19T04:45:02.870Z,52.92
2023-05-19T04:50:03.073Z,52.92
2023-05-19T04:55:02.209Z,52.95
2023-05-19T05:00:02.556Z,52.94
2023-05-19T05:05:02.685Z,52.9
2023-05-19T05:10:02.773Z,52.87
2023-05-19T05:15:02.855Z,52.85
2023-05-19T05:20:03.116Z,52.79
2023-05-19T05:25:02.190Z,52.79
2023-05-19T05:30:02.174Z,52.73
2023-05-19T05:35:02.305Z,52.68
2023-05-19T05:40:02.376Z,52.62
2023-05-19T05:45:02.442Z,52.6
2023-05-19T05:50:02.543Z,52.6
2023-05-19T05:55:02.599Z,52.52
2023-05-19T06:00:02.742Z,52.48
2023-05-19T06:05:02.886Z,52.48
2023-05-19T06:10:02.094Z,52.48
2023-05-19T06:15:02.276Z,52.35
2023-05-19T06:20:02.332Z,52.29
2023-05-19T06:25:02.395Z,52.3
2023-05-19T06:30:02.530Z,52.24
2023-05-19T06:35:02.651Z,52.19
2023-05-19T06:40:02.793Z,52.19
2023-05-19T06:45:02.913Z,52.11
2023-05-19T06:50:03.135Z,52.1
2023-05-19T06:55:02.294Z,52.1
2023-05-19T07:00:02.412Z,52.1
2023-05-19T07:05:02.594Z,52.03
2023-05-19T07:10:02.773Z,51.99
2023-05-19T07:15:03.103Z,51.94
2023-05-19T07:20:02.213Z,51.93
2023-05-19T07:25:02.262Z,51.86
2023-05-19T07:30:02.409Z,51.82
2023-05-19T07:35:02.559Z,51.76
2023-05-19T07:40:02.656Z,51.69
2023-05-19T07:45:02.703Z,51.63
2023-05-19T07:50:02.865Z,51.57
2023-05-19T07:55:03.197Z,51.51
2023-05-19T08:00:02.320Z,51.51
2023-05-19T08:05:02.453Z,51.42
2023-05-19T08:10:02.636Z,51.38
2023-05-19T08:15:02.683Z,51.34
2023-05-19T08:20:02.738Z,51.31
2023-05-19T08:25:02.917Z,51.24
2023-05-19T08:30:02.176Z,51.15
2023-05-19T08:35:02.287Z,51.15
2023-05-19T08:40:08.173Z,51.1
2023-05-19T08:45:02.307Z,51.1
2023-05-19T08:50:02.461Z,51.0
2023-05-19T08:55:12.324Z,50.94
2023-05-19T09:00:02.441Z,50.9
2023-05-19T09:05:02.563Z,50.87
2023-05-19T09:10:02.760Z,50.83
2023-05-19T09:15:02.916Z,50.75
2023-05-19T09:20:03.054Z,50.73
2023-05-19T09:25:02.135Z,50.67
2023-05-19T09:30:02.301Z,50.62
2023-05-19T09:35:02.630Z,50.58
2023-05-19T09:40:02.795Z,50.52
2023-05-19T09:45:03.091Z,50.46
2023-05-19T09:50:02.184Z,50.43
2023-05-19T09:55:02.294Z,50.39
2023-05-19T10:00:02.341Z,50.4
2023-05-19T10:05:02.437Z,50.34
2023-05-19T10:10:02.540Z,50.31
2023-05-19T10:15:02.814Z,50.23
2023-05-19T10:20:02.971Z,50.19
2023-05-19T10:25:02.265Z,50.12
2023-05-19T10:30:02.373Z,50.07
2023-05-19T10:35:02.532Z,49.96
2023-05-19T10:40:02.631Z,49.95
2023-05-19T10:45:12.658Z,49.87
2023-05-19T10:50:02.847Z,49.8
2023-05-19T10:55:02.982Z,49.71
2023-05-19T11:00:10.687Z,49.64
2023-05-19T11:05:12.809Z,49.52
2023-05-19T11:10:03.064Z,49.47
2023-05-19T11:15:02.168Z,49.43
2023-05-19T11:20:02.287Z,49.33
2023-05-19T11:25:02.399Z,49.24
2023-05-19T11:30:10.732Z,49.2
2023-05-19T11:35:02.825Z,49.2
2023-05-19T11:40:05.106Z,48.99
2023-05-19T11:45:02.315Z,48.86
2023-05-19T11:50:02.387Z,48.84
2023-05-19T11:55:02.785Z,48.84
2023-05-19T12:00:02.868Z,48.68
2023-05-19T12:05:03.161Z,48.55
2023-05-19T12:10:02.321Z,48.37
2023-05-19T12:15:02.453Z,48.37
2023-05-19T12:20:02.705Z,48.11
2023-05-19T12:25:02.844Z,47.96
2023-05-19T12:30:03.022Z,47.64
2023-05-19T12:35:02.117Z,47.64
2023-05-19T12:40:02.291Z,47.15
2023-05-19T12:45:03.399Z,47.0
2023-05-19T12:50:04.827Z,46.78
2023-05-19T12:55:08.617Z,46.78
2023-05-19T13:00:02.922Z,46.43
2023-05-19T13:05:02.083Z,46.32
2023-05-19T13:10:02.442Z,46.2
2023-05-19T13:15:02.567Z,46.2
2023-05-19T13:20:02.685Z,46.26
2023-05-19T13:25:02.744Z,46.22
2023-05-19T13:30:02.861Z,46.27
2023-05-19T13:35:02.974Z,46.3
2023-05-19T13:40:02.159Z,46.3
2023-05-19T13:45:02.218Z,46.21
2023-05-19T13:50:02.376Z,46.2
2023-05-19T13:55:02.593Z,46.2
2023-05-19T14:00:04.156Z,46.21
2023-05-19T14:05:02.452Z,46.12
2023-05-19T14:10:02.520Z,46.16
2023-05-19T14:15:02.677Z,46.18
2023-05-19T14:20:02.787Z,46.16
2023-05-19T14:25:02.925Z,46.16
2023-05-19T14:30:02.008Z,46.11
2023-05-19T14:35:02.198Z,46.09
2023-05-19T14:40:02.394Z,46.09
2023-05-19T14:45:02.602Z,46.09
2023-05-19T14:50:02.845Z,46.09
2023-05-19T14:55:03.106Z,46.07
2023-05-19T15:00:02.234Z,46.07
2023-05-19T15:05:02.422Z,46.07
2023-05-19T15:10:02.567Z,46.05
2023-05-19T15:15:02.628Z,45.99
2023-05-19T15:20:02.755Z,46.01
2023-05-19T15:25:02.824Z,46.0
2023-05-19T15:30:03.090Z,46.02
2023-05-19T15:35:02.141Z,46.01
2023-05-19T15:40:02.299Z,45.99
2023-05-19T15:45:02.430Z,46.01
2023-05-19T15:50:02.573Z,46.02
2023-05-19T15:55:02.767Z,45.99
2023-05-19T16:00:02.927Z,46.0
2023-05-19T16:05:03.338Z,46.0
2023-05-19T16:10:02.423Z,46.0
2023-05-19T16:15:02.556Z,45.99
2023-05-19T16:20:02.647Z,45.96
2023-05-19T16:25:02.677Z,45.96
2023-05-19T16:30:02.718Z,45.96
2023-05-19T16:35:02.852Z,45.96
2023-05-19T16:40:02.895Z,46.04
2023-05-19T16:45:03.030Z,46.01
2023-05-19T16:50:02.200Z,46.02
2023-05-19T16:55:02.275Z,46.04
2023-05-19T17:00:02.401Z,46.06
2023-05-19T17:05:02.623Z,46.09
2023-05-19T17:10:02.690Z,46.09
2023-05-19T17:15:02.952Z,46.12
2023-05-19T17:20:02.031Z,46.12
2023-05-19T17:25:02.216Z,46.19
2023-05-19T17:30:02.346Z,46.21
2023-05-19T17:35:02.466Z,46.23
2023-05-19T17:40:02.595Z,46.25
2023-05-19T17:45:02.783Z,46.28
2023-05-19T17:50:02.825Z,46.28
2023-05-19T17:55:02.966Z,46.33
2023-05-19T18:00:02.148Z,46.33
2023-05-19T18:05:02.257Z,46.38
2023-05-19T18:10:02.406Z,46.35
2023-05-19T18:15:02.515Z,46.38
2023-05-19T18:20:02.636Z,46.44
2023-05-19T18:25:02.781Z,46.45
2023-05-19T18:30:02.938Z,46.45
2023-05-19T18:35:02.044Z,46.48
2023-05-19T18:40:02.174Z,46.53
2023-05-19T18:45:02.417Z,46.54
2023-05-19T18:50:02.527Z,46.54
2023-05-19T18:55:02.687Z,46.59
2023-05-19T19:00:02.818Z,46.6
2023-05-19T19:05:02.990Z,46.63
2023-05-19T19:10:02.233Z,46.63
2023-05-19T19:15:02.382Z,46.71
2023-05-19T19:20:02.673Z,46.75
2023-05-19T19:25:02.869Z,46.75
2023-05-19T19:30:02.970Z,46.75
2023-05-19T19:35:02.100Z,46.87
2023-05-19T19:40:02.291Z,46.88
2023-05-19T19:45:03.592Z,46.93
2023-05-19T19:50:02.855Z,46.98
2023-05-19T19:55:02.930Z,47.01
2023-05-19T20:00:03.020Z,47.04
2023-05-19T20:05:02.159Z,47.12
2023-05-19T20:10:02.369Z,47.17
2023-05-19T20:15:02.494Z,47.21
2023-05-19T20:20:02.649Z,47.28
2023-05-19T20:25:03.033Z,47.33
2023-05-19T20:30:02.640Z,47.33
2023-05-19T20:35:02.719Z,47.43
2023-05-19T20:40:02.939Z,47.51
2023-05-19T20:45:02.088Z,47.56
2023-05-19T20:50:02.202Z,47.61
2023-05-19T20:55:02.329Z,47.68
2023-05-19T21:00:02.857Z,47.72
2023-05-19T21:05:03.129Z,47.8
2023-05-19T21:10:02.492Z,47.87
2023-05-19T21:15:02.657Z,47.91
2023-05-19T21:20:02.942Z,47.97
2023-05-19T21:25:02.093Z,48.02
2023-05-19T21:30:02.247Z,48.08
2023-05-19T21:35:02.254Z,48.13
2023-05-19T21:40:02.323Z,48.18
2023-05-19T21:45:02.672Z,48.23
2023-05-19T21:50:02.824Z,48.28
2023-05-19T21:55:02.939Z,48.31
2023-05-19T22:00:02.108Z,48.37
2023-05-19T22:05:15.050Z,48.44
2023-05-19T22:10:08.044Z,48.48
2023-05-19T22:15:08.030Z,48.48
2023-05-19T22:20:08.048Z,48.59
2023-05-19T22:25:08.052Z,48.66
2023-05-19T22:30:08.047Z,48.67
2023-05-19T22:35:08.033Z,48.72
2023-05-19T22:40:08.032Z,48.72
2023-05-19T22:45:08.011Z,48.79
2023-05-19T22:50:08.048Z,48.82
2023-05-19T22:55:08.076Z,48.85
2023-05-19T23:01:15.841Z,48.89
2023-05-19T23:05:08.774Z,48.92
2023-05-19T23:10:08.953Z,48.94
2023-05-19T23:15:07.943Z,48.96
2023-05-19T23:20:08.028Z,48.96
2023-05-19T23:25:08.061Z,49.01
2023-05-19T23:30:08.127Z,49.05
2023-05-19T23:35:08.160Z,49.07
2023-05-19T23:40:08.287Z,49.08
2023-05-19T23:45:08.346Z,49.14
2023-05-19T23:50:08.394Z,49.15
2023-05-19T23:55:08.420Z,49.17
